createdAt,value
2023-10-15T00:01:10.581Z,8.28
2023-10-15T00:03:40.635Z,8.25
2023-10-15T00:06:08.712Z,8.20
2023-10-15T00:08:39.181Z,8.12
2023-10-15T00:11:14.713Z,8.06
2023-10-15T00:13:44.929Z,8.02
2023-10-15T00:16:19.010Z,8.07
2023-10-15T00:18:48.569Z,8.09
2023-10-15T00:21:16.765Z,8.10
2023-10-15T00:23:48.196Z,8.21
2023-10-15T00:26:17.104Z,8.15
2023-10-15T00:28:48.161Z,8.15
2023-10-15T00:31:16.667Z,7.99
2023-10-15T00:33:47.773Z,8.04
2023-10-15T00:36:17.340Z,8.08
2023-10-15T00:38:46.583Z,8.13
2023-10-15T00:41:15.385Z,8.18
2023-10-15T00:43:53.505Z,8.16
2023-10-15T00:46:21.860Z,8.14
2023-10-15T00:48:50.598Z,8.12
2023-10-15T00:51:21.533Z,8.18
2023-10-15T00:53:54.058Z,8.20
2023-10-15T00:56:28.061Z,8.25
2023-10-15T00:59:09.492Z,8.26
2023-10-15T01:01:40.949Z,8.29
2023-10-15T01:04:10.903Z,8.25
2023-10-15T01:06:44.669Z,8.32
2023-10-15T01:09:19.956Z,8.33
2023-10-15T01:11:57.095Z,8.38
2023-10-15T01:14:31.873Z,8.43
2023-10-15T01:17:01.217Z,8.42
2023-10-15T01:19:38.352Z,8.43
2023-10-15T01:22:09.677Z,8.42
2023-10-15T01:24:39.041Z,8.37
2023-10-15T01:27:11.199Z,8.40
2023-10-15T01:29:42.322Z,8.37
2023-10-15T01:32:12.249Z,8.31
2023-10-15T01:34:42.696Z,8.44
2023-10-15T01:37:16.811Z,8.40
2023-10-15T01:39:49.966Z,8.32
2023-10-15T01:42:41.913Z,8.36
2023-10-15T01:45:18.567Z,8.36
2023-10-15T01:48:05.358Z,8.34
2023-10-15T01:50:42.394Z,8.24
2023-10-15T01:53:10.465Z,8.36
2023-10-15T01:55:38.655Z,8.28
2023-10-15T01:58:13.187Z,8.24
2023-10-15T02:00:45.285Z,8.18
2023-10-15T02:03:13.608Z,8.15
2023-10-15T02:05:46.291Z,8.05
2023-10-15T02:08:17.791Z,8.00
2023-10-15T02:10:49.012Z,7.91
2023-10-15T02:13:18.945Z,7.74
2023-10-15T02:15:50.903Z,7.75
2023-10-15T02:18:19.984Z,7.73
2023-10-15T02:21:02.277Z,7.70
2023-10-15T02:23:34.343Z,7.71
2023-10-15T02:26:03.006Z,7.66
2023-10-15T02:28:34.193Z,7.57
2023-10-15T02:31:15.579Z,7.42
2023-10-15T02:33:45.977Z,7.26
2023-10-15T02:36:17.638Z,7.35
2023-10-15T02:38:54.588Z,7.11
2023-10-15T02:41:23.951Z,7.19
2023-10-15T02:43:56.761Z,6.97
2023-10-15T02:46:29.909Z,7.01
2023-10-15T02:48:57.989Z,6.88
2023-10-15T02:51:26.476Z,6.81
2023-10-15T02:53:56.134Z,6.74
2023-10-15T02:56:24.704Z,6.68
2023-10-15T02:58:55.536Z,6.69
2023-10-15T03:01:25.865Z,6.61
2023-10-15T03:03:56.508Z,6.61
2023-10-15T03:06:29.981Z,6.53
2023-10-15T03:08:58.662Z,6.41
2023-10-15T03:11:32.944Z,6.44
2023-10-15T03:14:04.923Z,6.35
2023-10-15T03:16:34.560Z,6.14
2023-10-15T03:19:10.849Z,6.17
2023-10-15T03:21:40.577Z,6.04
2023-10-15T03:24:09.667Z,6.19
2023-10-15T03:26:38.459Z,6.14
2023-10-15T03:29:11.145Z,6.13
2023-10-15T03:31:39.498Z,6.19
2023-10-15T03:34:20.945Z,6.11
2023-10-15T03:36:53.072Z,6.20
2023-10-15T03:39:28.022Z,6.17
2023-10-15T03:42:10.499Z,6.07
2023-10-15T03:44:45.535Z,6.16
2023-10-15T03:47:14.785Z,6.23
2023-10-15T03:49:45.428Z,6.18
2023-10-15T03:52:21.740Z,6.36
2023-10-15T03:54:50.375Z,6.37
2023-10-15T03:57:20.023Z,6.29
2023-10-15T03:59:53.205Z,6.43
2023-10-15T04:02:39.763Z,6.36
2023-10-15T04:05:13.545Z,6.37
2023-10-15T04:07:49.923Z,6.49
2023-10-15T04:10:24.974Z,6.43
2023-10-15T04:12:53.768Z,6.44
2023-10-15T04:15:23.632Z,6.30
2023-10-15T04:17:52.866Z,6.39
2023-10-15T04:20:27.284Z,6.24
2023-10-15T04:22:55.689Z,6.29
2023-10-15T04:25:28.310Z,6.09
2023-10-15T04:27:57.004Z,6.14
2023-10-15T04:30:26.943Z,6.21
2023-10-15T04:32:58.551Z,6.18
2023-10-15T04:35:31.203Z,6.07
2023-10-15T04:38:00.940Z,6.03
2023-10-15T04:40:29.073Z,6.05
2023-10-15T04:43:01.283Z,6.09
2023-10-15T04:45:41.791Z,6.04
2023-10-15T04:48:16.741Z,5.95
2023-10-15T04:50:46.600Z,6.04
2023-10-15T04:53:18.389Z,6.00
2023-10-15T04:55:47.466Z,6.09
2023-10-15T04:58:15.881Z,6.07
2023-10-15T05:00:49.164Z,6.08
2023-10-15T05:03:17.498Z,6.16
2023-10-15T05:05:45.996Z,6.09
2023-10-15T05:08:15.096Z,6.06
2023-10-15T05:10:47.483Z,6.01
2023-10-15T05:13:15.694Z,6.12
2023-10-15T05:15:46.245Z,6.18
2023-10-15T05:18:14.717Z,6.06
2023-10-15T05:20:42.877Z,6.15
2023-10-15T05:23:11.233Z,6.19
2023-10-15T05:25:41.468Z,6.15
2023-10-15T05:28:10.174Z,6.13
2023-10-15T05:30:39.352Z,6.13
2023-10-15T05:33:09.487Z,6.09
2023-10-15T05:35:38.944Z,6.13
2023-10-15T05:38:10.393Z,6.08
2023-10-15T05:40:39.698Z,6.06
2023-10-15T05:43:07.840Z,6.12
2023-10-15T05:45:38.616Z,6.11
2023-10-15T05:48:08.891Z,5.98
2023-10-15T05:50:36.779Z,6.04
2023-10-15T05:53:05.020Z,6.08
2023-10-15T05:55:33.719Z,6.07
2023-10-15T05:58:01.878Z,6.00
2023-10-15T06:00:29.911Z,6.09
2023-10-15T06:03:00.339Z,6.08
2023-10-15T06:05:29.856Z,6.07
2023-10-15T06:07:57.836Z,5.96
2023-10-15T06:10:26.066Z,5.96
2023-10-15T06:12:54.114Z,6.02
2023-10-15T06:15:23.694Z,5.97
2023-10-15T06:17:53.272Z,5.95
2023-10-15T06:20:21.895Z,5.97
2023-10-15T06:22:56.474Z,5.90
2023-10-15T06:25:26.315Z,5.90
2023-10-15T06:27:54.303Z,5.85
2023-10-15T06:30:24.840Z,6.06
2023-10-15T06:32:54.913Z,6.08
2023-10-15T06:35:24.628Z,6.03
2023-10-15T06:37:57.022Z,6.01
2023-10-15T06:40:25.831Z,6.12
2023-10-15T06:43:01.363Z,6.19
2023-10-15T06:45:30.092Z,6.39
2023-10-15T06:47:58.157Z,6.45
2023-10-15T06:50:27.627Z,6.46
2023-10-15T06:52:57.725Z,6.47
2023-10-15T06:55:25.709Z,6.48
2023-10-15T06:57:54.842Z,6.48
2023-10-15T07:00:26.770Z,6.49
2023-10-15T07:02:56.702Z,6.65
2023-10-15T07:05:27.336Z,6.69
2023-10-15T07:07:58.790Z,6.70
2023-10-15T07:10:27.644Z,6.76
2023-10-15T07:12:56.317Z,6.90
2023-10-15T07:15:25.439Z,7.02
2023-10-15T07:17:54.688Z,7.12
2023-10-15T07:20:26.847Z,7.23
2023-10-15T07:22:58.292Z,7.34
2023-10-15T07:25:28.153Z,7.43
2023-10-15T07:27:58.653Z,7.37
2023-10-15T07:30:27.691Z,7.29
2023-10-15T07:32:59.193Z,7.37
2023-10-15T07:35:29.328Z,7.29
2023-10-15T07:37:59.484Z,7.13
2023-10-15T07:40:28.466Z,7.09
2023-10-15T07:43:00.720Z,7.10
2023-10-15T07:45:31.050Z,7.17
2023-10-15T07:48:02.318Z,7.05
2023-10-15T07:50:32.361Z,7.12
2023-10-15T07:53:02.476Z,7.17
2023-10-15T07:55:30.937Z,7.25
2023-10-15T07:57:59.673Z,7.26
2023-10-15T08:00:30.750Z,7.19
2023-10-15T08:03:00.717Z,7.14
2023-10-15T08:05:29.769Z,7.12
2023-10-15T08:07:59.042Z,7.14
2023-10-15T08:10:33.705Z,7.31
2023-10-15T08:13:03.245Z,7.32
2023-10-15T08:15:33.747Z,7.46
2023-10-15T08:18:04.604Z,7.44
2023-10-15T08:20:33.402Z,7.59
2023-10-15T08:23:02.066Z,7.73
2023-10-15T08:25:33.753Z,7.82
2023-10-15T08:28:04.488Z,7.69
2023-10-15T08:30:33.733Z,7.66
2023-10-15T08:33:01.956Z,7.66
2023-10-15T08:35:30.229Z,7.78
2023-10-15T08:38:01.267Z,7.88
2023-10-15T08:40:32.081Z,7.90
2023-10-15T08:43:06.409Z,7.88
2023-10-15T08:45:36.826Z,7.97
2023-10-15T08:48:07.262Z,8.09
2023-10-15T08:50:37.662Z,8.18
2023-10-15T08:53:08.339Z,8.26
2023-10-15T08:55:39.018Z,8.26
2023-10-15T08:58:10.412Z,8.14
2023-10-15T09:00:39.239Z,8.00
2023-10-15T09:03:07.669Z,7.97
2023-10-15T09:05:38.569Z,7.94
2023-10-15T09:08:09.517Z,8.05
2023-10-15T09:10:41.841Z,8.04
2023-10-15T09:13:18.473Z,8.05
2023-10-15T09:15:48.804Z,8.15
2023-10-15T09:18:18.386Z,8.09
2023-10-15T09:20:52.446Z,8.01
2023-10-15T09:23:23.329Z,8.10
2023-10-15T09:25:57.232Z,8.02
2023-10-15T09:28:29.558Z,7.92
2023-10-15T09:31:04.325Z,7.92
2023-10-15T09:33:33.984Z,8.04
2023-10-15T09:36:03.973Z,8.11
2023-10-15T09:38:33.095Z,8.14
2023-10-15T09:41:09.432Z,8.15
2023-10-15T09:43:38.868Z,8.12
2023-10-15T09:46:08.687Z,8.22
2023-10-15T09:48:38.803Z,8.38
2023-10-15T09:51:09.133Z,8.46
2023-10-15T09:53:38.022Z,8.48
2023-10-15T09:56:14.797Z,8.61
2023-10-15T09:58:45.383Z,8.59
2023-10-15T10:01:27.542Z,8.67
2023-10-15T10:04:21.139Z,8.86
2023-10-15T10:07:15.508Z,8.92
2023-10-15T10:10:19.897Z,8.78
2023-10-15T10:13:07.899Z,8.70
2023-10-15T10:15:44.461Z,8.91
2023-10-15T10:18:15.513Z,8.92
2023-10-15T10:20:49.313Z,8.77
2023-10-15T10:23:18.589Z,8.70
2023-10-15T10:25:50.380Z,8.70
2023-10-15T10:28:24.207Z,8.62
2023-10-15T10:30:56.821Z,8.58
2023-10-15T10:33:42.059Z,8.44
2023-10-15T10:36:13.880Z,8.43
2023-10-15T10:38:44.129Z,8.40
2023-10-15T10:41:25.421Z,8.57
2023-10-15T10:44:09.863Z,8.48
2023-10-15T10:46:45.224Z,8.54
2023-10-15T10:49:18.441Z,8.60
2023-10-15T10:52:06.057Z,8.59
2023-10-15T10:54:36.647Z,8.60
2023-10-15T10:57:12.158Z,8.77
2023-10-15T10:59:43.919Z,8.83
2023-10-15T11:02:17.214Z,8.91
2023-10-15T11:04:45.664Z,8.96
2023-10-15T11:07:15.472Z,8.89
2023-10-15T11:09:44.089Z,8.86
2023-10-15T11:12:13.296Z,8.94
2023-10-15T11:14:42.954Z,8.88
2023-10-15T11:17:11.244Z,8.86
2023-10-15T11:19:41.025Z,8.81
2023-10-15T11:22:09.470Z,8.59
2023-10-15T11:24:37.504Z,8.57
2023-10-15T11:27:08.706Z,8.51
2023-10-15T11:29:37.198Z,8.51
2023-10-15T11:32:09.755Z,8.46
2023-10-15T11:34:37.795Z,8.35
2023-10-15T11:37:07.191Z,8.27
2023-10-15T11:39:43.793Z,8.14
2023-10-15T11:42:12.525Z,8.31
2023-10-15T11:44:43.713Z,8.33
2023-10-15T11:47:21.565Z,8.43
2023-10-15T11:49:51.485Z,8.54
2023-10-15T11:52:23.179Z,8.55
2023-10-15T11:54:52.368Z,8.56
2023-10-15T11:57:24.866Z,8.66
2023-10-15T11:59:56.291Z,8.82
2023-10-15T12:02:28.382Z,8.92
2023-10-15T12:04:58.721Z,8.78
2023-10-15T12:07:30.250Z,8.59
2023-10-15T12:10:00.083Z,8.67
2023-10-15T12:12:28.522Z,8.48
2023-10-15T12:14:58.971Z,8.29
2023-10-15T12:17:28.632Z,8.49
2023-10-15T12:20:16.136Z,8.49
2023-10-15T12:22:44.918Z,8.56
2023-10-15T12:25:13.302Z,8.65
2023-10-15T12:27:41.206Z,8.78
2023-10-15T12:30:14.790Z,8.91
2023-10-15T12:32:47.331Z,9.01
2023-10-15T12:35:17.833Z,8.82
2023-10-15T12:37:46.117Z,8.58
2023-10-15T12:40:23.343Z,8.57
2023-10-15T12:42:53.441Z,8.59
2023-10-15T12:45:21.738Z,8.85
2023-10-15T12:47:51.214Z,9.01
2023-10-15T12:50:19.414Z,8.86
2023-10-15T12:52:49.113Z,8.76
2023-10-15T12:55:18.811Z,8.74
2023-10-15T12:57:51.623Z,8.77
2023-10-15T13:00:22.575Z,8.78
2023-10-15T13:02:54.930Z,8.93
2023-10-15T13:05:24.840Z,9.04
2023-10-15T13:07:55.086Z,9.04
2023-10-15T13:10:24.048Z,9.00
2023-10-15T13:12:54.061Z,9.07
2023-10-15T13:15:22.939Z,9.05
2023-10-15T13:17:56.299Z,9.16
2023-10-15T13:20:25.651Z,9.27
2023-10-15T13:22:53.737Z,9.33
2023-10-15T13:25:23.622Z,9.22
2023-10-15T13:27:52.041Z,9.03
2023-10-15T13:30:23.768Z,8.96
2023-10-15T13:32:53.580Z,8.91
2023-10-15T13:35:21.727Z,8.94
2023-10-15T13:37:49.742Z,8.84
2023-10-15T13:40:20.120Z,8.88
2023-10-15T13:42:48.454Z,8.86
2023-10-15T13:45:19.037Z,8.75
2023-10-15T13:47:48.817Z,8.61
2023-10-15T13:50:19.675Z,8.68
2023-10-15T13:52:49.052Z,8.53
2023-10-15T13:55:17.854Z,8.46
2023-10-15T13:57:46.149Z,8.42
2023-10-15T14:00:20.974Z,8.37
2023-10-15T14:02:50.970Z,8.27
2023-10-15T14:05:24.607Z,8.34
2023-10-15T14:07:55.545Z,8.25
2023-10-15T14:10:23.799Z,8.17
2023-10-15T14:12:55.048Z,8.17
2023-10-15T14:15:27.856Z,8.25
2023-10-15T14:17:58.201Z,8.23
2023-10-15T14:20:27.319Z,8.15
2023-10-15T14:22:59.127Z,8.13
2023-10-15T14:25:27.089Z,8.12
2023-10-15T14:27:55.019Z,8.03
2023-10-15T14:30:23.110Z,8.05
2023-10-15T14:32:51.086Z,7.87
2023-10-15T14:35:19.902Z,7.97
2023-10-15T14:37:49.593Z,8.03
2023-10-15T14:40:17.615Z,7.92
2023-10-15T14:42:46.471Z,7.89
2023-10-15T14:45:17.521Z,7.76
2023-10-15T14:47:45.506Z,7.78
2023-10-15T14:50:14.361Z,7.69
2023-10-15T14:52:43.026Z,7.71
2023-10-15T14:55:14.210Z,7.70
2023-10-15T14:57:42.246Z,7.72
2023-10-15T15:00:15.711Z,7.63
2023-10-15T15:02:44.831Z,7.66
2023-10-15T15:05:13.955Z,7.62
2023-10-15T15:07:42.095Z,7.47
2023-10-15T15:10:10.440Z,7.46
2023-10-15T15:12:39.800Z,7.50
2023-10-15T15:15:08.427Z,7.52
2023-10-15T15:17:38.357Z,7.53
2023-10-15T15:20:08.819Z,7.46
2023-10-15T15:22:39.517Z,7.33
2023-10-15T15:25:09.559Z,7.36
2023-10-15T15:27:37.624Z,7.20
2023-10-15T15:30:10.367Z,7.12
2023-10-15T15:32:39.091Z,7.20
2023-10-15T15:35:08.486Z,7.24
2023-10-15T15:37:37.002Z,7.16
2023-10-15T15:40:07.286Z,7.17
2023-10-15T15:42:35.442Z,7.01
2023-10-15T15:45:03.460Z,6.92
2023-10-15T15:47:33.931Z,6.93
2023-10-15T15:50:01.965Z,6.81
2023-10-15T15:52:31.411Z,6.88
2023-10-15T15:54:59.553Z,6.70
2023-10-15T15:57:27.437Z,6.71
2023-10-15T15:59:55.427Z,6.56
2023-10-15T16:02:26.757Z,6.65
2023-10-15T16:04:56.689Z,6.54
2023-10-15T16:07:25.132Z,6.46
2023-10-15T16:09:53.006Z,6.47
2023-10-15T16:12:21.041Z,6.39
2023-10-15T16:14:49.015Z,6.37
2023-10-15T16:17:17.139Z,6.39
2023-10-15T16:19:45.293Z,6.29
2023-10-15T16:22:14.705Z,6.23
2023-10-15T16:24:49.951Z,6.13
2023-10-15T16:27:26.242Z,6.07
2023-10-15T16:29:54.228Z,6.01
2023-10-15T16:32:22.196Z,5.86
2023-10-15T16:34:50.253Z,5.83
2023-10-15T16:37:19.673Z,5.97
2023-10-15T16:39:47.577Z,5.90
2023-10-15T16:42:15.628Z,5.75
2023-10-15T16:44:46.308Z,5.71
2023-10-15T16:47:14.289Z,5.51
2023-10-15T16:49:42.412Z,5.47
2023-10-15T16:52:10.570Z,5.27
2023-10-15T16:54:39.855Z,5.23
2023-10-15T16:57:07.910Z,5.15
2023-10-15T16:59:36.012Z,5.20
2023-10-15T17:02:04.234Z,5.15
2023-10-15T17:04:32.583Z,5.13
2023-10-15T17:07:00.707Z,5.16
2023-10-15T17:09:28.894Z,5.15
2023-10-15T17:11:58.719Z,5.09
2023-10-15T17:14:26.771Z,5.08
2023-10-15T17:16:54.923Z,5.23
2023-10-15T17:19:22.986Z,5.27
2023-10-15T17:21:51.149Z,5.24
2023-10-15T17:24:19.135Z,5.14
2023-10-15T17:26:47.078Z,5.21
2023-10-15T17:29:16.410Z,5.28
2023-10-15T17:31:44.338Z,5.26
2023-10-15T17:34:12.395Z,5.17
2023-10-15T17:36:54.900Z,5.21
2023-10-15T17:39:26.362Z,5.15
2023-10-15T17:41:56.792Z,5.13
2023-10-15T17:44:26.293Z,5.14
2023-10-15T17:46:54.634Z,5.24
2023-10-15T17:49:22.734Z,5.31
2023-10-15T17:51:51.957Z,5.25
2023-10-15T17:54:20.510Z,5.21
2023-10-15T17:56:48.500Z,5.28
2023-10-15T17:59:16.490Z,5.24
2023-10-15T18:01:45.800Z,5.13
2023-10-15T18:04:14.042Z,5.17
2023-10-15T18:06:42.144Z,5.04
2023-10-15T18:09:11.013Z,5.03
2023-10-15T18:11:39.619Z,5.04
2023-10-15T18:14:09.128Z,5.17
2023-10-15T18:16:37.376Z,5.23
2023-10-15T18:19:07.254Z,5.09
2023-10-15T18:21:35.404Z,5.18
2023-10-15T18:24:03.601Z,5.28
2023-10-15T18:26:31.686Z,5.36
2023-10-15T18:29:00.820Z,5.33
2023-10-15T18:31:28.779Z,5.29
2023-10-15T18:33:56.893Z,5.31
2023-10-15T18:36:26.631Z,5.34
2023-10-15T18:38:57.130Z,5.18
2023-10-15T18:41:24.953Z,5.16
2023-10-15T18:43:52.816Z,5.16
2023-10-15T18:46:20.804Z,5.04
2023-10-15T18:48:48.934Z,5.07
2023-10-15T18:51:36.560Z,5.18
2023-10-15T18:54:06.957Z,4.96
2023-10-15T18:56:35.041Z,5.10
2023-10-15T18:59:03.921Z,5.08
2023-10-15T19:01:33.638Z,4.92
2023-10-15T19:04:01.733Z,5.03
2023-10-15T19:06:30.587Z,4.94
2023-10-15T19:08:58.943Z,4.93
2023-10-15T19:11:30.825Z,4.68
2023-10-15T19:13:58.717Z,4.80
2023-10-15T19:16:26.870Z,4.86
2023-10-15T19:18:55.592Z,4.72
2023-10-15T19:21:27.879Z,4.58
2023-10-15T19:23:57.153Z,4.70
2023-10-15T19:26:25.078Z,4.55
2023-10-15T19:28:54.714Z,4.45
2023-10-15T19:31:23.152Z,4.44
2023-10-15T19:33:51.251Z,4.36
2023-10-15T19:36:19.448Z,4.34
2023-10-15T19:38:47.696Z,4.47
2023-10-15T19:41:17.053Z,4.26
2023-10-15T19:43:45.069Z,4.19
2023-10-15T19:46:15.522Z,4.26
2023-10-15T19:48:43.680Z,4.32
2023-10-15T19:51:11.612Z,4.27
2023-10-15T19:53:39.691Z,3.99
2023-10-15T19:56:11.445Z,3.97
2023-10-15T19:58:39.799Z,3.83
2023-10-15T20:01:09.513Z,3.98
2023-10-15T20:03:47.511Z,3.94
2023-10-15T20:06:19.145Z,3.95
2023-10-15T20:08:47.080Z,4.10
2023-10-15T20:11:15.091Z,4.18
2023-10-15T20:13:43.853Z,4.03
2023-10-15T20:16:11.783Z,4.04
2023-10-15T20:18:41.150Z,4.01
2023-10-15T20:21:09.721Z,3.97
2023-10-15T20:23:38.261Z,3.91
2023-10-15T20:26:07.100Z,4.08
2023-10-15T20:28:36.878Z,3.90
2023-10-15T20:31:04.924Z,3.96
2023-10-15T20:33:35.466Z,3.83
2023-10-15T20:36:06.080Z,3.95
2023-10-15T20:38:34.741Z,4.04
2023-10-15T20:41:02.736Z,3.91
2023-10-15T20:43:30.691Z,3.81
2023-10-15T20:45:58.782Z,3.94
2023-10-15T20:48:28.851Z,3.94
2023-10-15T20:50:58.747Z,4.08
2023-10-15T20:53:28.122Z,4.14
2023-10-15T20:55:56.889Z,4.13
2023-10-15T20:58:25.007Z,4.07
2023-10-15T21:00:53.152Z,4.01
2023-10-15T21:03:21.251Z,4.06
2023-10-15T21:05:49.433Z,4.11
2023-10-15T21:08:19.362Z,4.05
2023-10-15T21:10:48.608Z,4.02
2023-10-15T21:13:16.679Z,4.01
2023-10-15T21:15:44.864Z,3.93
2023-10-15T21:18:12.978Z,3.79
2023-10-15T21:20:41.109Z,3.95
2023-10-15T21:23:09.984Z,3.94
2023-10-15T21:25:37.909Z,3.96
2023-10-15T21:28:07.862Z,4.01
2023-10-15T21:30:36.201Z,3.93
2023-10-15T21:33:04.606Z,3.95
2023-10-15T21:35:32.607Z,3.93
2023-10-15T21:38:00.532Z,3.91
2023-10-15T21:40:28.500Z,3.79
2023-10-15T21:42:56.553Z,3.74
2023-10-15T21:45:26.229Z,3.86
2023-10-15T21:47:54.356Z,3.89
2023-10-15T21:50:22.396Z,3.84
2023-10-15T21:52:50.291Z,3.67
2023-10-15T21:55:18.869Z,3.55
2023-10-15T21:57:46.933Z,3.63
2023-10-15T22:00:28.445Z,3.60
2023-10-15T22:02:58.727Z,3.54
2023-10-15T22:05:27.254Z,3.55
2023-10-15T22:07:55.245Z,3.55
2023-10-15T22:10:27.653Z,3.56
2023-10-15T22:12:57.305Z,3.67
2023-10-15T22:15:26.260Z,3.67
2023-10-15T22:17:56.650Z,3.67
2023-10-15T22:20:28.420Z,3.65
2023-10-15T22:22:59.289Z,3.54
2023-10-15T22:25:27.459Z,3.57
2023-10-15T22:28:02.999Z,3.47
2023-10-15T22:30:39.054Z,3.36
2023-10-15T22:33:09.502Z,3.41
2023-10-15T22:35:41.139Z,3.33
2023-10-15T22:38:09.132Z,3.20
2023-10-15T22:40:37.100Z,3.29
2023-10-15T22:43:05.436Z,3.22
2023-10-15T22:45:33.409Z,3.25
2023-10-15T22:48:01.533Z,3.20
2023-10-15T22:50:32.420Z,3.21
2023-10-15T22:53:02.027Z,3.14
2023-10-15T22:55:30.628Z,3.13
2023-10-15T22:57:58.950Z,2.90
2023-10-15T23:00:27.384Z,2.96
2023-10-15T23:02:57.810Z,3.08
2023-10-15T23:05:26.508Z,2.89
2023-10-15T23:07:55.636Z,3.05
2023-10-15T23:10:30.222Z,2.95
2023-10-15T23:12:58.281Z,2.89
2023-10-15T23:15:30.446Z,2.89
2023-10-15T23:17:58.667Z,2.90
2023-10-15T23:20:35.406Z,2.87
2023-10-15T23:23:06.810Z,2.84
2023-10-15T23:25:37.155Z,2.94
2023-10-15T23:28:12.159Z,2.89
2023-10-15T23:30:42.639Z,2.80
2023-10-15T23:33:11.213Z,2.76
2023-10-15T23:35:40.018Z,2.70
2023-10-15T23:38:09.535Z,2.73
2023-10-15T23:40:40.278Z,2.69
2023-10-15T23:43:12.252Z,2.62
2023-10-15T23:45:40.506Z,2.46
2023-10-15T23:48:18.016Z,2.47
2023-10-15T23:50:46.945Z,2.56
2023-10-15T23:53:31.223Z,2.59
2023-10-15T23:56:08.338Z,2.50
2023-10-15T23:58:39.682Z,2.46
